createdAt,value
2023-04-21T00:00:54.561Z,2.60
2023-04-21T00:03:24.139Z,2.55
2023-04-21T00:05:51.746Z,2.63
2023-04-21T00:08:18.941Z,3.00
2023-04-21T00:10:46.967Z,2.80
2023-04-21T00:13:14.279Z,2.90
2023-04-21T00:15:41.262Z,2.67
2023-04-21T00:18:08.164Z,3.08
2023-04-21T00:20:35.584Z,3.10
2023-04-21T00:23:03.698Z,3.13
2023-04-21T00:25:30.744Z,2.78
2023-04-21T00:27:57.438Z,2.78
2023-04-21T00:30:24.303Z,2.90
2023-04-21T00:32:51.066Z,2.80
2023-04-21T00:35:17.876Z,2.92
2023-04-21T00:37:45.047Z,2.65
2023-04-21T00:40:11.963Z,3.03
2023-04-21T00:42:40.097Z,2.60
2023-04-21T00:45:07.318Z,2.70
2023-04-21T00:47:34.105Z,2.50
2023-04-21T00:50:01.041Z,3.10
2023-04-21T00:52:28.485Z,3.20
2023-04-21T00:54:55.995Z,2.67
2023-04-21T00:57:23.343Z,2.80
2023-04-21T00:59:50.340Z,3.15
2023-04-21T01:02:18.817Z,3.00
2023-04-21T01:04:48.086Z,2.88
2023-04-21T01:07:14.906Z,3.00
2023-04-21T01:09:41.716Z,3.13
2023-04-21T01:12:11.185Z,3.03
2023-04-21T01:14:40.246Z,3.05
2023-04-21T01:17:08.092Z,2.80
2023-04-21T01:19:41.984Z,2.97
2023-04-21T01:22:13.318Z,2.85
2023-04-21T01:24:42.233Z,2.53
2023-04-21T01:27:20.519Z,2.92
2023-04-21T01:29:51.913Z,2.92
2023-04-21T01:32:21.705Z,3.00
2023-04-21T01:34:49.249Z,2.70
2023-04-21T01:37:19.865Z,2.83
2023-04-21T01:39:52.257Z,3.00
2023-04-21T01:42:19.835Z,2.90
2023-04-21T01:44:47.152Z,3.20
2023-04-21T01:47:17.514Z,2.80
2023-04-21T01:49:44.238Z,3.08
2023-04-21T01:52:12.704Z,2.80
2023-04-21T01:54:39.688Z,3.42
2023-04-21T01:57:07.496Z,2.97
2023-04-21T01:59:34.647Z,3.03
2023-04-21T02:02:03.066Z,2.90
2023-04-21T02:04:32.850Z,3.22
2023-04-21T02:07:00.041Z,2.88
2023-04-21T02:09:26.709Z,2.95
2023-04-21T02:11:55.822Z,3.10
2023-04-21T02:14:23.028Z,2.80
2023-04-21T02:16:52.981Z,3.00
2023-04-21T02:19:20.687Z,3.58
2023-04-21T02:21:47.834Z,3.20
2023-04-21T02:24:14.643Z,3.60
2023-04-21T02:26:41.351Z,3.15
2023-04-21T02:29:08.035Z,3.33
2023-04-21T02:31:49.708Z,2.80
2023-04-21T02:34:16.974Z,3.50
2023-04-21T02:36:43.871Z,3.35
2023-04-21T02:39:10.776Z,3.17
2023-04-21T02:41:38.386Z,3.15
2023-04-21T02:44:05.497Z,3.40
2023-04-21T02:46:32.571Z,3.72
2023-04-21T02:48:59.518Z,3.25
2023-04-21T02:51:26.960Z,3.28
2023-04-21T02:53:53.749Z,3.42
2023-04-21T02:56:20.493Z,3.42
2023-04-21T02:58:47.144Z,3.20
2023-04-21T03:01:13.952Z,3.63
2023-04-21T03:03:40.713Z,3.10
2023-04-21T03:06:07.704Z,3.40
2023-04-21T03:08:34.411Z,3.35
2023-04-21T03:11:01.266Z,3.63
2023-04-21T03:13:28.265Z,3.72
2023-04-21T03:15:55.063Z,3.35
2023-04-21T03:18:21.786Z,3.47
2023-04-21T03:20:48.741Z,3.45
2023-04-21T03:23:15.943Z,3.70
2023-04-21T03:25:43.180Z,3.10
2023-04-21T03:28:09.794Z,3.70
2023-04-21T03:30:36.818Z,3.50
2023-04-21T03:33:04.712Z,3.53
2023-04-21T03:35:34.300Z,3.55
2023-04-21T03:38:03.242Z,3.90
2023-04-21T03:40:30.737Z,3.67
2023-04-21T03:42:57.971Z,3.58
2023-04-21T03:45:25.000Z,4.05
2023-04-21T03:47:55.873Z,4.00
2023-04-21T03:50:23.490Z,3.67
2023-04-21T03:52:50.367Z,3.55
2023-04-21T03:55:17.164Z,3.83
2023-04-21T03:57:44.030Z,4.15
2023-04-21T04:00:11.438Z,3.28
2023-04-21T04:02:41.190Z,4.28
2023-04-21T04:05:08.437Z,3.97
2023-04-21T04:07:35.914Z,3.92
2023-04-21T04:10:02.626Z,3.58
2023-04-21T04:12:29.219Z,4.10
2023-04-21T04:14:55.983Z,4.47
2023-04-21T04:17:22.713Z,3.50
2023-04-21T04:19:49.466Z,4.30
2023-04-21T04:22:16.394Z,3.88
2023-04-21T04:24:45.082Z,4.00
2023-04-21T04:27:14.099Z,4.10
2023-04-21T04:29:41.175Z,4.18
2023-04-21T04:32:11.113Z,4.05
2023-04-21T04:34:38.019Z,4.63
2023-04-21T04:37:04.859Z,4.13
2023-04-21T04:39:31.930Z,4.30
2023-04-21T04:41:58.638Z,4.43
2023-04-21T04:44:25.920Z,3.83
2023-04-21T04:46:54.208Z,4.43
2023-04-21T04:49:23.575Z,4.40
2023-04-21T04:51:51.104Z,4.50
2023-04-21T04:54:18.196Z,4.22
2023-04-21T04:56:45.457Z,4.20
2023-04-21T04:59:12.393Z,3.80
2023-04-21T05:01:40.621Z,3.90
2023-04-21T05:04:07.706Z,4.38
2023-04-21T05:06:34.640Z,4.43
2023-04-21T05:09:01.309Z,4.53
2023-04-21T05:11:27.976Z,4.22
2023-04-21T05:13:54.876Z,4.10
2023-04-21T05:16:21.750Z,4.18
2023-04-21T05:18:51.123Z,3.80
2023-04-21T05:21:27.687Z,4.47
2023-04-21T05:23:56.419Z,4.68
2023-04-21T05:26:23.855Z,4.33
2023-04-21T05:28:51.088Z,4.72
2023-04-21T05:31:18.087Z,4.43
2023-04-21T05:33:44.991Z,4.43
2023-04-21T05:36:12.182Z,4.07
2023-04-21T05:38:39.099Z,4.50
2023-04-21T05:41:06.206Z,4.50
2023-04-21T05:43:35.857Z,4.50
2023-04-21T05:46:03.908Z,4.50
2023-04-21T05:48:30.518Z,4.43
2023-04-21T05:50:57.560Z,4.72
2023-04-21T05:53:24.381Z,4.65
2023-04-21T05:55:51.452Z,4.30
2023-04-21T05:58:18.306Z,4.63
2023-04-21T06:00:47.875Z,4.38
2023-04-21T06:03:16.204Z,4.30
2023-04-21T06:05:43.166Z,4.50
2023-04-21T06:08:09.874Z,4.28
2023-04-21T06:10:36.724Z,4.30
2023-04-21T06:13:03.431Z,4.53
2023-04-21T06:15:30.156Z,4.43
2023-04-21T06:17:57.586Z,4.53
2023-04-21T06:20:24.526Z,4.22
2023-04-21T06:22:51.176Z,4.88
2023-04-21T06:25:17.869Z,4.20
2023-04-21T06:27:45.661Z,4.28
2023-04-21T06:30:12.749Z,4.10
2023-04-21T06:32:39.637Z,4.70
2023-04-21T06:35:06.644Z,4.13
2023-04-21T06:37:33.457Z,4.55
2023-04-21T06:40:00.277Z,4.38
2023-04-21T06:42:26.874Z,4.40
2023-04-21T06:44:56.588Z,4.40
2023-04-21T06:47:23.465Z,4.13
2023-04-21T06:49:50.477Z,4.20
2023-04-21T06:52:18.269Z,4.50
2023-04-21T06:54:46.678Z,4.25
2023-04-21T06:57:15.166Z,4.05
2023-04-21T06:59:42.119Z,3.90
2023-04-21T07:02:08.883Z,4.45
2023-04-21T07:04:35.954Z,4.13
2023-04-21T07:07:03.365Z,3.70
2023-04-21T07:09:30.903Z,4.05
2023-04-21T07:11:57.500Z,4.35
2023-04-21T07:14:24.291Z,4.15
2023-04-21T07:16:51.036Z,3.80
2023-04-21T07:19:17.944Z,3.70
2023-04-21T07:21:44.840Z,4.15
2023-04-21T07:24:11.510Z,3.47
2023-04-21T07:26:38.148Z,3.45
2023-04-21T07:29:04.873Z,3.55
2023-04-21T07:31:31.842Z,3.45
2023-04-21T07:33:59.121Z,3.53
2023-04-21T07:36:28.904Z,4.03
2023-04-21T07:38:57.352Z,4.00
2023-04-21T07:41:24.028Z,3.80
2023-04-21T07:43:53.177Z,3.78
2023-04-21T07:46:21.666Z,3.53
2023-04-21T07:48:48.499Z,3.40
2023-04-21T07:51:17.982Z,3.88
2023-04-21T07:53:45.023Z,2.95
2023-04-21T07:56:13.009Z,4.03
2023-04-21T07:58:39.902Z,3.63
2023-04-21T08:01:06.771Z,3.97
2023-04-21T08:03:33.737Z,3.92
2023-04-21T08:06:00.811Z,3.90
2023-04-21T08:08:27.564Z,3.42
2023-04-21T08:10:54.644Z,3.53
2023-04-21T08:13:25.284Z,3.42
2023-04-21T08:15:53.173Z,3.88
2023-04-21T08:18:22.451Z,3.53
2023-04-21T08:20:49.467Z,3.55
2023-04-21T08:23:16.212Z,3.58
2023-04-21T08:25:43.052Z,3.63
2023-04-21T08:28:09.813Z,3.72
2023-04-21T08:30:36.598Z,3.47
2023-04-21T08:33:03.485Z,3.25
2023-04-21T08:35:30.407Z,3.75
2023-04-21T08:37:57.142Z,3.50
2023-04-21T08:40:32.434Z,3.33
2023-04-21T08:42:59.555Z,3.40
2023-04-21T08:45:27.850Z,3.50
2023-04-21T08:47:55.990Z,3.60
2023-04-21T08:50:28.482Z,3.15
2023-04-21T08:52:56.340Z,3.75
2023-04-21T08:55:27.224Z,3.72
2023-04-21T08:57:54.055Z,3.33
2023-04-21T09:00:21.360Z,3.40
2023-04-21T09:03:01.364Z,3.55
2023-04-21T09:05:33.893Z,3.67
2023-04-21T09:08:09.652Z,3.65
2023-04-21T09:10:51.186Z,3.90
2023-04-21T09:13:19.807Z,3.90
2023-04-21T09:15:49.645Z,3.72
2023-04-21T09:18:22.273Z,3.97
2023-04-21T09:20:53.074Z,3.60
2023-04-21T09:23:21.547Z,3.75
2023-04-21T09:25:48.195Z,3.77
2023-04-21T09:28:15.355Z,3.70
2023-04-21T09:30:43.374Z,3.55
2023-04-21T09:33:27.923Z,3.80
2023-04-21T09:36:01.134Z,3.65
2023-04-21T09:38:27.928Z,4.10
2023-04-21T09:40:58.939Z,3.67
2023-04-21T09:43:28.627Z,3.40
2023-04-21T09:45:56.698Z,3.50
2023-04-21T09:48:26.124Z,3.53
2023-04-21T09:53:28.464Z,3.75
2023-04-21T09:55:58.628Z,3.70
2023-04-21T09:58:28.619Z,3.78
2023-04-21T10:00:57.590Z,4.03
2023-04-21T10:03:28.461Z,3.33
2023-04-21T10:05:55.688Z,3.38
2023-04-21T10:08:22.922Z,3.70
2023-04-21T10:10:50.502Z,3.50
2023-04-21T10:13:18.789Z,3.67
2023-04-21T10:15:45.605Z,3.72
2023-04-21T10:18:21.740Z,3.55
2023-04-21T10:20:57.491Z,3.60
2023-04-21T10:23:29.862Z,3.40
2023-04-21T10:26:04.800Z,3.28
2023-04-21T10:29:02.207Z,3.35
2023-04-21T10:31:32.163Z,4.05
2023-04-21T10:34:20.735Z,3.72
2023-04-21T10:36:57.323Z,3.33
2023-04-21T10:39:28.824Z,3.67
2023-04-21T10:42:16.738Z,4.05
2023-04-21T10:44:43.767Z,3.50
2023-04-21T10:47:11.316Z,3.45
2023-04-21T10:49:39.453Z,3.35
2023-04-21T10:52:08.580Z,3.58
2023-04-21T10:54:45.837Z,3.38
2023-04-21T10:57:20.063Z,3.60
2023-04-21T10:59:48.121Z,3.33
2023-04-21T11:02:16.583Z,3.55
2023-04-21T11:04:50.256Z,3.03
2023-04-21T11:07:18.436Z,3.88
2023-04-21T11:09:47.383Z,3.50
2023-04-21T11:12:16.250Z,3.22
2023-04-21T11:14:43.959Z,2.90
2023-04-21T11:17:18.960Z,3.75
2023-04-21T11:19:55.935Z,3.00
2023-04-21T11:22:45.280Z,2.92
2023-04-21T11:27:55.044Z,3.13
2023-04-21T11:30:30.853Z,3.20
2023-04-21T11:32:57.757Z,3.05
2023-04-21T11:35:24.509Z,3.17
2023-04-21T11:37:54.433Z,3.20
2023-04-21T11:40:21.876Z,3.38
2023-04-21T11:42:48.907Z,4.30
2023-04-21T11:45:22.107Z,3.05
2023-04-21T11:47:49.306Z,2.92
2023-04-21T11:50:34.102Z,3.20
2023-04-21T11:53:02.688Z,2.88
2023-04-21T11:55:29.507Z,3.20
2023-04-21T11:57:57.833Z,3.20
2023-04-21T12:00:29.563Z,2.63
2023-04-21T12:02:57.059Z,3.08
2023-04-21T12:05:24.340Z,3.05
2023-04-21T12:07:55.817Z,3.20
2023-04-21T12:10:22.563Z,3.30
2023-04-21T12:12:49.497Z,3.30
2023-04-21T12:15:21.876Z,3.30
2023-04-21T12:17:53.020Z,2.90
2023-04-21T12:20:21.791Z,2.70
2023-04-21T12:22:49.220Z,2.80
2023-04-21T12:25:16.205Z,3.22
2023-04-21T12:27:53.472Z,3.05
2023-04-21T12:30:21.939Z,2.70
2023-04-21T12:32:48.889Z,3.10
2023-04-21T12:35:16.343Z,2.70
2023-04-21T12:37:43.194Z,2.60
2023-04-21T12:40:10.640Z,2.92
2023-04-21T12:42:38.198Z,2.63
2023-04-21T12:45:06.600Z,2.80
2023-04-21T12:47:34.082Z,2.75
2023-04-21T12:50:01.343Z,2.75
2023-04-21T12:52:28.035Z,2.47
2023-04-21T12:54:54.714Z,2.65
2023-04-21T12:57:21.808Z,2.72
2023-04-21T12:59:48.703Z,3.00
2023-04-21T13:02:15.771Z,2.90
2023-04-21T13:04:42.766Z,2.63
2023-04-21T13:07:09.839Z,2.83
2023-04-21T13:09:36.641Z,2.78
2023-04-21T13:12:03.688Z,2.80
2023-04-21T13:14:30.636Z,3.30
2023-04-21T13:16:57.551Z,3.10
2023-04-21T13:19:24.497Z,2.75
2023-04-21T13:21:54.030Z,2.90
2023-04-21T13:24:21.749Z,2.92
2023-04-21T13:26:48.792Z,3.78
2023-04-21T13:29:16.049Z,3.13
2023-04-21T13:31:42.913Z,2.83
2023-04-21T13:34:09.841Z,2.80
2023-04-21T13:36:36.640Z,2.83
2023-04-21T13:39:05.702Z,2.70
2023-04-21T13:41:32.775Z,2.97
2023-04-21T13:43:59.580Z,2.70
2023-04-21T13:46:26.967Z,2.95
2023-04-21T13:48:54.490Z,2.88
2023-04-21T13:51:21.536Z,2.97
2023-04-21T13:53:49.059Z,2.97
2023-04-21T13:56:17.065Z,2.90
2023-04-21T13:58:44.715Z,2.75
2023-04-21T14:01:14.682Z,2.70
2023-04-21T14:03:41.697Z,2.88
2023-04-21T14:06:09.034Z,2.60
2023-04-21T14:08:35.974Z,2.75
2023-04-21T14:11:03.480Z,2.65
2023-04-21T14:13:37.343Z,2.63
2023-04-21T14:16:07.577Z,2.80
2023-04-21T14:18:34.468Z,2.60
2023-04-21T14:21:01.227Z,2.50
2023-04-21T14:23:28.135Z,2.80
2023-04-21T14:25:55.174Z,2.35
2023-04-21T14:28:22.051Z,2.63
2023-04-21T14:30:48.906Z,2.80
2023-04-21T14:33:15.791Z,2.35
2023-04-21T14:35:42.476Z,2.90
2023-04-21T14:38:09.217Z,2.42
2023-04-21T14:40:36.192Z,2.50
2023-04-21T14:43:02.902Z,9.30
2023-04-21T14:45:32.621Z,14.40
2023-04-21T14:47:59.420Z,22.45
2023-04-21T14:50:26.276Z,28.75
2023-04-21T14:52:55.786Z,40.50
2023-04-21T14:57:54.624Z,53.50
2023-04-21T15:00:23.220Z,66.30
2023-04-21T15:02:50.109Z,58.30
2023-04-21T15:05:18.524Z,55.40
2023-04-21T15:07:45.535Z,71.73
2023-04-21T15:10:12.628Z,79.80
2023-04-21T15:12:39.641Z,85.65
2023-04-21T15:15:06.790Z,88.53
2023-04-21T15:17:33.555Z,96.55
2023-04-21T15:20:00.205Z,97.97
2023-04-21T15:22:26.990Z,102.38
2023-04-21T15:24:54.735Z,91.30
2023-04-21T15:27:21.847Z,93.45
2023-04-21T15:29:48.633Z,92.55
2023-04-21T15:32:15.557Z,89.90
2023-04-21T15:34:42.263Z,91.97
2023-04-21T15:37:08.943Z,95.65
2023-04-21T15:39:35.841Z,96.00
2023-04-21T15:42:04.434Z,99.00
2023-04-21T15:44:31.638Z,105.83
2023-04-21T15:46:58.591Z,105.22
2023-04-21T15:49:26.232Z,102.93
2023-04-21T15:51:53.226Z,107.30
2023-04-21T15:54:19.985Z,106.82
2023-04-21T15:56:46.858Z,105.95
2023-04-21T15:59:13.754Z,105.30
2023-04-21T16:01:40.687Z,108.68
2023-04-21T16:04:07.862Z,109.45
2023-04-21T16:06:36.112Z,98.35
2023-04-21T16:09:03.025Z,101.72
2023-04-21T16:11:29.748Z,100.00
2023-04-21T16:13:56.733Z,101.32
2023-04-21T16:16:23.574Z,99.00
2023-04-21T16:18:50.245Z,100.70
2023-04-21T16:21:17.246Z,98.93
2023-04-21T16:23:44.224Z,96.90
2023-04-21T16:26:11.087Z,97.18
2023-04-21T16:28:37.885Z,97.10
2023-04-21T16:31:04.786Z,96.95
2023-04-21T16:33:31.738Z,91.53
2023-04-21T16:35:58.438Z,95.47
2023-04-21T16:38:25.109Z,93.43
2023-04-21T16:40:51.954Z,93.90
2023-04-21T16:43:18.929Z,91.68
2023-04-21T16:45:46.002Z,89.50
2023-04-21T16:48:13.228Z,88.10
2023-04-21T16:50:41.915Z,89.78
2023-04-21T16:53:09.025Z,87.00
2023-04-21T16:55:36.001Z,83.82
2023-04-21T16:58:02.816Z,87.20
2023-04-21T17:00:30.513Z,81.43
2023-04-21T17:02:57.877Z,79.53
2023-04-21T17:05:24.978Z,80.63
2023-04-21T17:07:52.010Z,80.78
2023-04-21T17:10:18.822Z,80.90
2023-04-21T17:12:46.220Z,79.97
2023-04-21T17:15:13.305Z,78.47
2023-04-21T17:17:42.950Z,75.88
2023-04-21T17:20:11.803Z,74.32
2023-04-21T17:22:39.733Z,75.07
2023-04-21T17:25:07.885Z,73.90
2023-04-21T17:27:36.187Z,71.70
2023-04-21T17:30:07.338Z,69.95
2023-04-21T17:32:34.580Z,71.95
2023-04-21T17:35:02.110Z,69.85
2023-04-21T17:37:30.315Z,70.68
2023-04-21T17:39:59.122Z,68.07
2023-04-21T17:42:28.326Z,64.47
2023-04-21T17:44:55.062Z,64.90
2023-04-21T17:47:21.870Z,61.42
2023-04-21T17:49:48.624Z,62.15
2023-04-21T17:52:16.972Z,62.08
2023-04-21T17:54:44.035Z,60.47
2023-04-21T17:57:11.954Z,61.30
2023-04-21T17:59:39.618Z,61.78
2023-04-21T18:02:07.365Z,60.80
2023-04-21T18:04:34.816Z,58.45
2023-04-21T18:07:02.641Z,62.25
2023-04-21T18:09:29.404Z,58.33
2023-04-21T18:11:57.076Z,60.40
2023-04-21T18:14:24.652Z,57.03
2023-04-21T18:16:51.415Z,58.38
2023-04-21T18:19:18.509Z,55.00
2023-04-21T18:21:45.790Z,53.67
2023-04-21T18:24:12.416Z,53.40
2023-04-21T18:26:39.352Z,55.40
2023-04-21T18:29:06.107Z,52.88
2023-04-21T18:31:33.465Z,53.03
2023-04-21T18:34:00.354Z,53.20
2023-04-21T18:36:30.115Z,52.38
2023-04-21T18:38:59.220Z,49.97
2023-04-21T18:41:27.602Z,50.53
2023-04-21T18:43:54.802Z,50.08
2023-04-21T18:46:21.875Z,51.05
2023-04-21T18:48:48.532Z,49.90
2023-04-21T18:51:15.454Z,48.38
2023-04-21T18:53:43.356Z,46.95
2023-04-21T18:56:09.998Z,46.90
2023-04-21T18:58:36.810Z,47.50
2023-04-21T19:01:03.747Z,48.53
2023-04-21T19:04:01.915Z,45.45
2023-04-21T19:06:29.301Z,45.22
2023-04-21T19:08:56.919Z,42.70
2023-04-21T19:11:24.033Z,43.25
2023-04-21T19:13:50.769Z,41.33
2023-04-21T19:16:17.487Z,41.75
2023-04-21T19:18:44.238Z,40.72
2023-04-21T19:21:13.533Z,40.17
2023-04-21T19:26:08.775Z,39.33
2023-04-21T19:28:36.121Z,40.00
2023-04-21T19:31:03.233Z,39.03
2023-04-21T19:33:30.010Z,40.00
2023-04-21T19:35:58.735Z,38.75
2023-04-21T19:38:27.034Z,36.50
2023-04-21T19:40:54.907Z,35.50
2023-04-21T19:43:22.666Z,38.13
2023-04-21T19:45:49.759Z,36.50
2023-04-21T19:48:16.548Z,37.17
2023-04-21T19:50:43.274Z,36.30
2023-04-21T19:53:14.589Z,35.25
2023-04-21T19:55:44.444Z,36.90
2023-04-21T19:58:11.561Z,34.72
2023-04-21T20:00:38.357Z,36.10
2023-04-21T20:03:06.637Z,33.42
2023-04-21T20:05:33.867Z,34.30
2023-04-21T20:08:00.956Z,34.25
2023-04-21T20:10:27.855Z,33.10
2023-04-21T20:12:54.469Z,33.20
2023-04-21T20:15:21.734Z,32.17
2023-04-21T20:17:49.119Z,31.60
2023-04-21T20:20:16.492Z,30.42
2023-04-21T20:22:43.262Z,30.02
2023-04-21T20:25:10.744Z,30.52
2023-04-21T20:27:37.498Z,30.33
2023-04-21T20:30:04.576Z,30.13
2023-04-21T20:32:31.491Z,28.92
2023-04-21T20:34:59.646Z,30.52
2023-04-21T20:37:26.458Z,28.33
2023-04-21T20:39:53.237Z,29.27
2023-04-21T20:42:21.774Z,29.77
2023-04-21T20:44:48.483Z,28.60
2023-04-21T20:47:15.921Z,27.95
2023-04-21T20:49:43.582Z,27.63
2023-04-21T20:52:10.618Z,27.08
2023-04-21T20:54:38.778Z,27.23
2023-04-21T20:57:07.348Z,26.20
2023-04-21T20:59:34.273Z,27.40
2023-04-21T21:02:00.981Z,26.48
2023-04-21T21:04:28.008Z,27.30
2023-04-21T21:06:54.827Z,25.10
2023-04-21T21:09:21.756Z,25.10
2023-04-21T21:11:48.433Z,24.10
2023-04-21T21:14:15.178Z,23.65
2023-04-21T21:16:42.415Z,24.40
2023-04-21T21:19:10.053Z,23.65
2023-04-21T21:21:36.738Z,23.63
2023-04-21T21:24:03.542Z,22.17
2023-04-21T21:26:30.661Z,22.92
2023-04-21T21:28:57.817Z,22.42
2023-04-21T21:31:25.662Z,20.67
2023-04-21T21:33:53.882Z,21.75
2023-04-21T21:36:20.675Z,20.80
2023-04-21T21:38:47.349Z,20.65
2023-04-21T21:41:14.783Z,20.52
2023-04-21T21:43:41.651Z,19.98
2023-04-21T21:46:08.947Z,21.15
2023-04-21T21:48:35.732Z,21.63
2023-04-21T21:51:02.703Z,19.50
2023-04-21T21:53:29.827Z,20.17
2023-04-21T21:55:56.739Z,20.15
2023-04-21T21:58:23.480Z,18.45
2023-04-21T22:00:51.997Z,19.40
2023-04-21T22:03:20.117Z,19.10
2023-04-21T22:05:47.635Z,17.92
2023-04-21T22:08:15.687Z,17.38
2023-04-21T22:10:43.382Z,18.63
2023-04-21T22:13:10.695Z,18.13
2023-04-21T22:15:38.731Z,18.55
2023-04-21T22:18:07.185Z,18.77
2023-04-21T22:20:34.122Z,18.40
2023-04-21T22:23:00.776Z,18.48
2023-04-21T22:25:27.371Z,18.13
2023-04-21T22:27:55.234Z,16.92
2023-04-21T22:30:22.092Z,17.60
2023-04-21T22:32:48.825Z,17.08
2023-04-21T22:35:15.510Z,16.60
2023-04-21T22:37:42.560Z,15.93
2023-04-21T22:40:10.104Z,16.45
2023-04-21T22:42:37.151Z,15.52
2023-04-21T22:45:05.535Z,16.10
2023-04-21T22:47:33.630Z,14.83
2023-04-21T22:50:00.572Z,15.25
2023-04-21T22:52:27.480Z,14.85
2023-04-21T22:54:54.473Z,14.55
2023-04-21T22:57:23.929Z,13.90
2023-04-21T22:59:50.702Z,14.45
2023-04-21T23:02:17.674Z,14.10
2023-04-21T23:04:44.453Z,13.55
2023-04-21T23:07:11.166Z,13.75
2023-04-21T23:09:38.056Z,14.23
2023-04-21T23:12:06.232Z,13.88
2023-04-21T23:14:33.035Z,14.18
2023-04-21T23:19:26.587Z,13.93
2023-04-21T23:21:53.425Z,12.65
2023-04-21T23:24:20.056Z,12.73
2023-04-21T23:26:46.998Z,12.05
2023-04-21T23:29:14.006Z,12.13
2023-04-21T23:31:41.029Z,12.40
2023-04-21T23:34:07.855Z,11.57
2023-04-21T23:36:34.669Z,11.60
2023-04-21T23:39:01.644Z,12.35
2023-04-21T23:41:28.573Z,11.60
2023-04-21T23:43:55.195Z,11.25
2023-04-21T23:46:21.894Z,12.57
2023-04-21T23:48:48.594Z,10.75
2023-04-21T23:51:15.843Z,10.73
2023-04-21T23:53:42.700Z,11.13
2023-04-21T23:56:09.487Z,10.77
2023-04-21T23:58:36.204Z,11.27
